sensor_id;sensor_type;location;lat;lon;timestamp;P1;durP1;ratioP1;P2;durP2;ratioP2
78057;SDS011;67265;52.514;13.292;2023-02-28T00:00:06;22.17;;;5.03;;
78057;SDS011;67265;52.514;13.292;2023-02-28T00:02:41;10.95;;;3.03;;
78057;SDS011;67265;52.514;13.292;2023-02-28T00:05:08;5.20;;;2.05;;
78057;SDS011;67265;52.514;13.292;2023-02-28T00:07:34;6.35;;;2.53;;
78057;SDS011;67265;52.514;13.292;2023-02-28T00:10:00;5.50;;;2.10;;
78057;SDS011;67265;52.514;13.292;2023-02-28T00:12:25;5.63;;;1.50;;
78057;SDS011;67265;52.514;13.292;2023-02-28T00:14:51;6.60;;;2.10;;
78057;SDS011;67265;52.514;13.292;2023-02-28T00:17:17;4.57;;;2.00;;
78057;SDS011;67265;52.514;13.292;2023-02-28T00:19:49;5.00;;;1.75;;
78057;SDS011;67265;52.514;13.292;2023-02-28T00:22:16;3.33;;;1.27;;
78057;SDS011;67265;52.514;13.292;2023-02-28T00:24:42;4.50;;;1.50;;
78057;SDS011;67265;52.514;13.292;2023-02-28T00:27:08;3.25;;;1.42;;
78057;SDS011;67265;52.514;13.292;2023-02-28T00:29:33;4.60;;;1.60;;
78057;SDS011;67265;52.514;13.292;2023-02-28T00:31:59;4.60;;;1.73;;
78057;SDS011;67265;52.514;13.292;2023-02-28T00:34:24;4.10;;;2.13;;
78057;SDS011;67265;52.514;13.292;2023-02-28T00:36:49;3.95;;;2.30;;
78057;SDS011;67265;52.514;13.292;2023-02-28T00:39:15;5.63;;;2.05;;
78057;SDS011;67265;52.514;13.292;2023-02-28T00:41:40;4.90;;;1.67;;
78057;SDS011;67265;52.514;13.292;2023-02-28T00:44:06;7.32;;;2.13;;
78057;SDS011;67265;52.514;13.292;2023-02-28T00:46:31;6.13;;;1.92;;
78057;SDS011;67265;52.514;13.292;2023-02-28T00:48:57;4.28;;;2.03;;
78057;SDS011;67265;52.514;13.292;2023-02-28T00:51:22;4.88;;;2.08;;
78057;SDS011;67265;52.514;13.292;2023-02-28T00:53:47;4.40;;;2.42;;
78057;SDS011;67265;52.514;13.292;2023-02-28T00:56:13;4.82;;;1.95;;
78057;SDS011;67265;52.514;13.292;2023-02-28T00:58:38;5.13;;;1.90;;
78057;SDS011;67265;52.514;13.292;2023-02-28T01:01:04;5.82;;;2.63;;
78057;SDS011;67265;52.514;13.292;2023-02-28T01:03:30;5.15;;;2.13;;
78057;SDS011;67265;52.514;13.292;2023-02-28T01:05:55;5.20;;;1.88;;
78057;SDS011;67265;52.514;13.292;2023-02-28T01:08:20;5.13;;;2.70;;
78057;SDS011;67265;52.514;13.292;2023-02-28T01:10:46;5.93;;;3.00;;
78057;SDS011;67265;52.514;13.292;2023-02-28T01:13:12;4.97;;;2.40;;
78057;SDS011;67265;52.514;13.292;2023-02-28T01:15:38;4.55;;;2.00;;
78057;SDS011;67265;52.514;13.292;2023-02-28T01:18:07;7.03;;;1.83;;
78057;SDS011;67265;52.514;13.292;2023-02-28T01:20:32;3.95;;;1.65;;
78057;SDS011;67265;52.514;13.292;2023-02-28T01:22:57;4.32;;;2.03;;
78057;SDS011;67265;52.514;13.292;2023-02-28T01:25:23;5.88;;;1.95;;
78057;SDS011;67265;52.514;13.292;2023-02-28T01:27:48;4.40;;;2.00;;
78057;SDS011;67265;52.514;13.292;2023-02-28T01:30:14;4.53;;;1.92;;
78057;SDS011;67265;52.514;13.292;2023-02-28T01:32:39;3.53;;;2.53;;
78057;SDS011;67265;52.514;13.292;2023-02-28T01:35:05;5.68;;;2.88;;
78057;SDS011;67265;52.514;13.292;2023-02-28T01:37:30;3.88;;;1.50;;
78057;SDS011;67265;52.514;13.292;2023-02-28T01:39:55;6.07;;;2.45;;
78057;SDS011;67265;52.514;13.292;2023-02-28T01:42:21;6.82;;;3.03;;
78057;SDS011;67265;52.514;13.292;2023-02-28T01:47:49;3.97;;;1.92;;
78057;SDS011;67265;52.514;13.292;2023-02-28T01:50:18;7.18;;;2.80;;
78057;SDS011;67265;52.514;13.292;2023-02-28T01:52:46;6.75;;;1.95;;
78057;SDS011;67265;52.514;13.292;2023-02-28T01:55:12;6.32;;;2.22;;
78057;SDS011;67265;52.514;13.292;2023-02-28T01:57:50;4.15;;;2.03;;
78057;SDS011;67265;52.514;13.292;2023-02-28T02:00:18;3.97;;;2.08;;
78057;SDS011;67265;52.514;13.292;2023-02-28T02:02:47;3.95;;;3.08;;
78057;SDS011;67265;52.514;13.292;2023-02-28T02:05:16;4.70;;;2.10;;
78057;SDS011;67265;52.514;13.292;2023-02-28T02:07:44;5.18;;;1.77;;
78057;SDS011;67265;52.514;13.292;2023-02-28T02:10:18;7.93;;;2.20;;
78057;SDS011;67265;52.514;13.292;2023-02-28T02:15:34;4.90;;;2.25;;
78057;SDS011;67265;52.514;13.292;2023-02-28T02:18:08;4.25;;;2.50;;
78057;SDS011;67265;52.514;13.292;2023-02-28T02:20:47;6.68;;;2.50;;
78057;SDS011;67265;52.514;13.292;2023-02-28T02:34:16;4.03;;;1.88;;
78057;SDS011;67265;52.514;13.292;2023-02-28T02:36:47;6.85;;;2.90;;
78057;SDS011;67265;52.514;13.292;2023-02-28T02:39:38;7.25;;;2.20;;
78057;SDS011;67265;52.514;13.292;2023-02-28T02:45:25;5.47;;;2.65;;
78057;SDS011;67265;52.514;13.292;2023-02-28T02:48:01;5.50;;;2.60;;
78057;SDS011;67265;52.514;13.292;2023-02-28T02:50:29;5.45;;;2.10;;
78057;SDS011;67265;52.514;13.292;2023-02-28T02:53:00;5.95;;;3.00;;
78057;SDS011;67265;52.514;13.292;2023-02-28T02:55:26;4.95;;;2.92;;
78057;SDS011;67265;52.514;13.292;2023-02-28T02:57:53;4.25;;;2.15;;
78057;SDS011;67265;52.514;13.292;2023-02-28T03:00:25;3.25;;;2.15;;
78057;SDS011;67265;52.514;13.292;2023-02-28T03:02:52;5.75;;;2.53;;
78057;SDS011;67265;52.514;13.292;2023-02-28T03:05:30;6.32;;;2.63;;
78057;SDS011;67265;52.514;13.292;2023-02-28T03:08:02;7.50;;;3.30;;
78057;SDS011;67265;52.514;13.292;2023-02-28T03:13:06;8.20;;;3.53;;
78057;SDS011;67265;52.514;13.292;2023-02-28T03:15:37;6.93;;;3.13;;
78057;SDS011;67265;52.514;13.292;2023-02-28T03:18:48;5.72;;;2.60;;
78057;SDS011;67265;52.514;13.292;2023-02-28T03:24:19;8.60;;;2.80;;
78057;SDS011;67265;52.514;13.292;2023-02-28T03:26:50;4.78;;;2.42;;
78057;SDS011;67265;52.514;13.292;2023-02-28T03:29:23;7.20;;;2.90;;
78057;SDS011;67265;52.514;13.292;2023-02-28T03:34:39;5.60;;;2.58;;
78057;SDS011;67265;52.514;13.292;2023-02-28T03:37:12;7.28;;;3.50;;
78057;SDS011;67265;52.514;13.292;2023-02-28T03:39:44;5.47;;;2.60;;
78057;SDS011;67265;52.514;13.292;2023-02-28T03:42:18;8.07;;;2.78;;
78057;SDS011;67265;52.514;13.292;2023-02-28T03:47:31;6.57;;;3.38;;
78057;SDS011;67265;52.514;13.292;2023-02-28T03:55:30;4.65;;;2.30;;
78057;SDS011;67265;52.514;13.292;2023-02-28T04:01:00;4.60;;;2.63;;
78057;SDS011;67265;52.514;13.292;2023-02-28T04:03:32;5.70;;;2.47;;
78057;SDS011;67265;52.514;13.292;2023-02-28T04:05:59;6.60;;;2.80;;
78057;SDS011;67265;52.514;13.292;2023-02-28T04:08:24;6.35;;;3.22;;
78057;SDS011;67265;52.514;13.292;2023-02-28T04:10:52;7.07;;;3.00;;
78057;SDS011;67265;52.514;13.292;2023-02-28T04:13:21;5.68;;;3.47;;
78057;SDS011;67265;52.514;13.292;2023-02-28T04:15:47;6.10;;;3.20;;
78057;SDS011;67265;52.514;13.292;2023-02-28T04:18:12;6.10;;;3.20;;
78057;SDS011;67265;52.514;13.292;2023-02-28T04:20:37;8.80;;;3.67;;
78057;SDS011;67265;52.514;13.292;2023-02-28T04:23:02;5.97;;;3.10;;
78057;SDS011;67265;52.514;13.292;2023-02-28T04:25:28;6.47;;;3.03;;
78057;SDS011;67265;52.514;13.292;2023-02-28T04:27:53;6.57;;;3.38;;
78057;SDS011;67265;52.514;13.292;2023-02-28T04:30:19;11.25;;;5.07;;
78057;SDS011;67265;52.514;13.292;2023-02-28T04:32:44;7.68;;;4.15;;
78057;SDS011;67265;52.514;13.292;2023-02-28T04:35:09;5.75;;;3.65;;
78057;SDS011;67265;52.514;13.292;2023-02-28T04:37:35;5.65;;;2.75;;
78057;SDS011;67265;52.514;13.292;2023-02-28T04:40:02;8.63;;;3.40;;
78057;SDS011;67265;52.514;13.292;2023-02-28T04:42:27;5.75;;;3.65;;
78057;SDS011;67265;52.514;13.292;2023-02-28T04:45:00;5.57;;;2.38;;
78057;SDS011;67265;52.514;13.292;2023-02-28T04:47:25;6.50;;;3.75;;
78057;SDS011;67265;52.514;13.292;2023-02-28T04:49:50;7.25;;;3.20;;
78057;SDS011;67265;52.514;13.292;2023-02-28T04:52:16;8.10;;;3.10;;
78057;SDS011;67265;52.514;13.292;2023-02-28T04:54:41;7.85;;;4.38;;
78057;SDS011;67265;52.514;13.292;2023-02-28T04:57:06;7.22;;;3.30;;
78057;SDS011;67265;52.514;13.292;2023-02-28T04:59:32;9.20;;;5.00;;
78057;SDS011;67265;52.514;13.292;2023-02-28T05:01:57;8.20;;;3.58;;
78057;SDS011;67265;52.514;13.292;2023-02-28T05:04:23;8.43;;;3.27;;
78057;SDS011;67265;52.514;13.292;2023-02-28T05:06:48;13.07;;;5.17;;
78057;SDS011;67265;52.514;13.292;2023-02-28T05:09:13;10.95;;;3.92;;
78057;SDS011;67265;52.514;13.292;2023-02-28T05:11:39;8.85;;;4.47;;
78057;SDS011;67265;52.514;13.292;2023-02-28T05:14:06;7.47;;;2.97;;
78057;SDS011;67265;52.514;13.292;2023-02-28T05:16:34;9.23;;;3.72;;
78057;SDS011;67265;52.514;13.292;2023-02-28T05:18:59;8.40;;;4.10;;
78057;SDS011;67265;52.514;13.292;2023-02-28T05:23:53;9.30;;;4.18;;
78057;SDS011;67265;52.514;13.292;2023-02-28T05:26:19;7.85;;;3.35;;
78057;SDS011;67265;52.514;13.292;2023-02-28T05:28:44;9.32;;;4.63;;
78057;SDS011;67265;52.514;13.292;2023-02-28T05:31:10;8.40;;;3.67;;
78057;SDS011;67265;52.514;13.292;2023-02-28T05:33:36;10.40;;;4.47;;
78057;SDS011;67265;52.514;13.292;2023-02-28T05:36:01;21.83;;;6.65;;
78057;SDS011;67265;52.514;13.292;2023-02-28T05:38:27;22.23;;;7.30;;
78057;SDS011;67265;52.514;13.292;2023-02-28T05:40:52;13.38;;;4.93;;
78057;SDS011;67265;52.514;13.292;2023-02-28T05:43:18;9.07;;;3.33;;
78057;SDS011;67265;52.514;13.292;2023-02-28T05:45:43;7.55;;;3.40;;
78057;SDS011;67265;52.514;13.292;2023-02-28T05:48:09;10.90;;;3.72;;
78057;SDS011;67265;52.514;13.292;2023-02-28T05:50:34;8.02;;;3.88;;
78057;SDS011;67265;52.514;13.292;2023-02-28T05:52:59;9.20;;;3.63;;
78057;SDS011;67265;52.514;13.292;2023-02-28T05:55:25;11.07;;;4.15;;
78057;SDS011;67265;52.514;13.292;2023-02-28T05:57:50;9.15;;;3.80;;
78057;SDS011;67265;52.514;13.292;2023-02-28T06:00:16;10.60;;;4.10;;
78057;SDS011;67265;52.514;13.292;2023-02-28T06:02:42;11.95;;;4.18;;
78057;SDS011;67265;52.514;13.292;2023-02-28T06:05:15;12.68;;;6.43;;
78057;SDS011;67265;52.514;13.292;2023-02-28T06:07:41;13.88;;;6.70;;
78057;SDS011;67265;52.514;13.292;2023-02-28T06:10:08;12.63;;;7.00;;
78057;SDS011;67265;52.514;13.292;2023-02-28T06:12:34;11.65;;;5.85;;
78057;SDS011;67265;52.514;13.292;2023-02-28T06:14:59;13.07;;;6.43;;
78057;SDS011;67265;52.514;13.292;2023-02-28T06:17:24;15.18;;;5.85;;
78057;SDS011;67265;52.514;13.292;2023-02-28T06:19:50;14.88;;;5.68;;
78057;SDS011;67265;52.514;13.292;2023-02-28T06:22:15;13.02;;;5.95;;
78057;SDS011;67265;52.514;13.292;2023-02-28T06:24:40;45.88;;;17.92;;
78057;SDS011;67265;52.514;13.292;2023-02-28T06:27:06;43.75;;;14.90;;
78057;SDS011;67265;52.514;13.292;2023-02-28T06:29:32;22.23;;;10.35;;
78057;SDS011;67265;52.514;13.292;2023-02-28T06:31:58;22.98;;;8.70;;
78057;SDS011;67265;52.514;13.292;2023-02-28T06:34:23;31.33;;;13.40;;
78057;SDS011;67265;52.514;13.292;2023-02-28T06:36:49;19.60;;;9.57;;
78057;SDS011;67265;52.514;13.292;2023-02-28T06:39:15;20.77;;;8.55;;
78057;SDS011;67265;52.514;13.292;2023-02-28T06:41:40;19.23;;;7.80;;
78057;SDS011;67265;52.514;13.292;2023-02-28T06:44:13;14.93;;;6.53;;
78057;SDS011;67265;52.514;13.292;2023-02-28T06:46:42;14.32;;;6.28;;
78057;SDS011;67265;52.514;13.292;2023-02-28T06:49:09;12.43;;;6.78;;
78057;SDS011;67265;52.514;13.292;2023-02-28T06:51:35;11.60;;;4.80;;
78057;SDS011;67265;52.514;13.292;2023-02-28T06:54:02;11.55;;;6.88;;
78057;SDS011;67265;52.514;13.292;2023-02-28T06:56:27;13.32;;;4.95;;
78057;SDS011;67265;52.514;13.292;2023-02-28T06:58:53;12.27;;;5.28;;
78057;SDS011;67265;52.514;13.292;2023-02-28T07:01:18;10.60;;;5.35;;
78057;SDS011;67265;52.514;13.292;2023-02-28T07:03:44;9.93;;;6.40;;
78057;SDS011;67265;52.514;13.292;2023-02-28T07:06:10;12.45;;;4.78;;
78057;SDS011;67265;52.514;13.292;2023-02-28T07:08:36;7.95;;;4.13;;
78057;SDS011;67265;52.514;13.292;2023-02-28T07:11:01;9.15;;;4.70;;
78057;SDS011;67265;52.514;13.292;2023-02-28T07:13:27;10.73;;;4.35;;
78057;SDS011;67265;52.514;13.292;2023-02-28T07:15:53;9.27;;;5.07;;
78057;SDS011;67265;52.514;13.292;2023-02-28T07:18:19;8.55;;;4.72;;
78057;SDS011;67265;52.514;13.292;2023-02-28T07:20:45;14.13;;;6.30;;
78057;SDS011;67265;52.514;13.292;2023-02-28T07:23:10;8.48;;;4.53;;
78057;SDS011;67265;52.514;13.292;2023-02-28T07:25:35;10.55;;;5.13;;
78057;SDS011;67265;52.514;13.292;2023-02-28T07:28:01;12.45;;;5.18;;
78057;SDS011;67265;52.514;13.292;2023-02-28T07:30:26;11.10;;;5.90;;
78057;SDS011;67265;52.514;13.292;2023-02-28T07:32:51;10.43;;;4.93;;
78057;SDS011;67265;52.514;13.292;2023-02-28T07:35:19;8.88;;;4.68;;
78057;SDS011;67265;52.514;13.292;2023-02-28T07:37:45;9.98;;;5.55;;
78057;SDS011;67265;52.514;13.292;2023-02-28T07:40:12;9.05;;;4.68;;
78057;SDS011;67265;52.514;13.292;2023-02-28T07:42:38;10.35;;;4.95;;
78057;SDS011;67265;52.514;13.292;2023-02-28T07:45:05;7.65;;;4.45;;
78057;SDS011;67265;52.514;13.292;2023-02-28T07:47:31;7.75;;;5.25;;
78057;SDS011;67265;52.514;13.292;2023-02-28T07:49:57;9.38;;;5.55;;
78057;SDS011;67265;52.514;13.292;2023-02-28T07:52:22;9.75;;;5.10;;
78057;SDS011;67265;52.514;13.292;2023-02-28T07:54:48;10.27;;;5.00;;
78057;SDS011;67265;52.514;13.292;2023-02-28T07:57:17;9.05;;;4.90;;
78057;SDS011;67265;52.514;13.292;2023-02-28T07:59:43;9.70;;;4.45;;
78057;SDS011;67265;52.514;13.292;2023-02-28T08:02:15;9.05;;;4.93;;
78057;SDS011;67265;52.514;13.292;2023-02-28T08:04:41;9.57;;;4.95;;
78057;SDS011;67265;52.514;13.292;2023-02-28T08:07:07;8.25;;;4.43;;
78057;SDS011;67265;52.514;13.292;2023-02-28T08:09:33;9.52;;;4.65;;
78057;SDS011;67265;52.514;13.292;2023-02-28T08:11:59;10.75;;;5.00;;
78057;SDS011;67265;52.514;13.292;2023-02-28T08:14:24;8.20;;;4.72;;
78057;SDS011;67265;52.514;13.292;2023-02-28T08:16:49;8.38;;;4.95;;
78057;SDS011;67265;52.514;13.292;2023-02-28T08:19:15;8.07;;;4.57;;
78057;SDS011;67265;52.514;13.292;2023-02-28T08:21:40;4.93;;;2.67;;
78057;SDS011;67265;52.514;13.292;2023-02-28T08:24:06;3.00;;;1.92;;
78057;SDS011;67265;52.514;13.292;2023-02-28T08:26:31;2.33;;;1.23;;
78057;SDS011;67265;52.514;13.292;2023-02-28T08:28:57;2.75;;;1.63;;
78057;SDS011;67265;52.514;13.292;2023-02-28T08:31:22;5.30;;;2.35;;
78057;SDS011;67265;52.514;13.292;2023-02-28T08:33:48;2.33;;;1.58;;
78057;SDS011;67265;52.514;13.292;2023-02-28T08:36:15;3.50;;;2.03;;
78057;SDS011;67265;52.514;13.292;2023-02-28T08:38:41;2.10;;;1.10;;
78057;SDS011;67265;52.514;13.292;2023-02-28T08:41:08;5.28;;;1.85;;
78057;SDS011;67265;52.514;13.292;2023-02-28T08:43:36;5.07;;;1.80;;
78057;SDS011;67265;52.514;13.292;2023-02-28T08:46:02;4.10;;;1.30;;
78057;SDS011;67265;52.514;13.292;2023-02-28T08:48:29;3.22;;;1.98;;
78057;SDS011;67265;52.514;13.292;2023-02-28T08:50:59;3.13;;;1.73;;
78057;SDS011;67265;52.514;13.292;2023-02-28T08:53:28;3.90;;;2.05;;
78057;SDS011;67265;52.514;13.292;2023-02-28T08:56:00;3.20;;;1.55;;
78057;SDS011;67265;52.514;13.292;2023-02-28T08:58:26;3.30;;;1.77;;
78057;SDS011;67265;52.514;13.292;2023-02-28T09:00:52;3.08;;;1.67;;
78057;SDS011;67265;52.514;13.292;2023-02-28T09:03:18;3.50;;;2.03;;
78057;SDS011;67265;52.514;13.292;2023-02-28T09:05:57;2.58;;;1.70;;
78057;SDS011;67265;52.514;13.292;2023-02-28T09:08:24;3.80;;;1.50;;
78057;SDS011;67265;52.514;13.292;2023-02-28T09:10:51;4.05;;;1.48;;
78057;SDS011;67265;52.514;13.292;2023-02-28T09:13:17;2.22;;;1.23;;
78057;SDS011;67265;52.514;13.292;2023-02-28T09:15:43;2.42;;;1.20;;
78057;SDS011;67265;52.514;13.292;2023-02-28T09:18:08;3.20;;;1.20;;
78057;SDS011;67265;52.514;13.292;2023-02-28T09:20:34;3.35;;;1.33;;
78057;SDS011;67265;52.514;13.292;2023-02-28T09:23:01;2.78;;;1.60;;
78057;SDS011;67265;52.514;13.292;2023-02-28T09:25:27;3.10;;;1.27;;
78057;SDS011;67265;52.514;13.292;2023-02-28T09:27:52;4.05;;;1.52;;
78057;SDS011;67265;52.514;13.292;2023-02-28T09:30:18;2.65;;;1.40;;
78057;SDS011;67265;52.514;13.292;2023-02-28T09:32:43;3.22;;;1.33;;
78057;SDS011;67265;52.514;13.292;2023-02-28T09:35:16;3.17;;;1.73;;
78057;SDS011;67265;52.514;13.292;2023-02-28T09:37:49;2.10;;;1.02;;
78057;SDS011;67265;52.514;13.292;2023-02-28T09:40:16;2.00;;;1.20;;
78057;SDS011;67265;52.514;13.292;2023-02-28T09:42:44;1.88;;;1.13;;
78057;SDS011;67265;52.514;13.292;2023-02-28T09:45:19;2.40;;;1.40;;
78057;SDS011;67265;52.514;13.292;2023-02-28T09:47:46;1.63;;;0.90;;
78057;SDS011;67265;52.514;13.292;2023-02-28T09:52:51;1.58;;;0.88;;
78057;SDS011;67265;52.514;13.292;2023-02-28T09:57:49;2.10;;;1.30;;
78057;SDS011;67265;52.514;13.292;2023-02-28T10:00:20;2.45;;;1.25;;
78057;SDS011;67265;52.514;13.292;2023-02-28T10:05:24;2.85;;;1.40;;
78057;SDS011;67265;52.514;13.292;2023-02-28T10:10:39;2.50;;;1.70;;
78057;SDS011;67265;52.514;13.292;2023-02-28T10:13:07;3.05;;;1.50;;
78057;SDS011;67265;52.514;13.292;2023-02-28T10:15:39;3.83;;;1.58;;
78057;SDS011;67265;52.514;13.292;2023-02-28T10:18:08;4.50;;;1.55;;
78057;SDS011;67265;52.514;13.292;2023-02-28T10:20:40;3.58;;;1.40;;
78057;SDS011;67265;52.514;13.292;2023-02-28T10:25:44;2.72;;;2.10;;
78057;SDS011;67265;52.514;13.292;2023-02-28T10:28:16;2.97;;;1.60;;
78057;SDS011;67265;52.514;13.292;2023-02-28T10:33:17;3.42;;;1.60;;
78057;SDS011;67265;52.514;13.292;2023-02-28T10:35:46;4.93;;;3.55;;
78057;SDS011;67265;52.514;13.292;2023-02-28T10:38:16;11.18;;;4.00;;
78057;SDS011;67265;52.514;13.292;2023-02-28T10:40:44;9.70;;;2.70;;
78057;SDS011;67265;52.514;13.292;2023-02-28T10:45:38;3.75;;;1.63;;
78057;SDS011;67265;52.514;13.292;2023-02-28T10:50:37;10.75;;;5.90;;
78057;SDS011;67265;52.514;13.292;2023-02-28T10:55:45;4.78;;;2.47;;
78057;SDS011;67265;52.514;13.292;2023-02-28T10:58:19;2.88;;;1.52;;
78057;SDS011;67265;52.514;13.292;2023-02-28T11:03:25;2.97;;;1.60;;
78057;SDS011;67265;52.514;13.292;2023-02-28T11:05:54;3.88;;;1.70;;
78057;SDS011;67265;52.514;13.292;2023-02-28T11:08:19;2.45;;;1.50;;
78057;SDS011;67265;52.514;13.292;2023-02-28T11:10:46;2.90;;;1.80;;
78057;SDS011;67265;52.514;13.292;2023-02-28T11:13:16;2.53;;;1.80;;
78057;SDS011;67265;52.514;13.292;2023-02-28T11:15:45;4.25;;;1.77;;
78057;SDS011;67265;52.514;13.292;2023-02-28T11:20:54;3.03;;;1.75;;
78057;SDS011;67265;52.514;13.292;2023-02-28T11:23:21;2.67;;;1.60;;
78057;SDS011;67265;52.514;13.292;2023-02-28T11:25:51;4.38;;;1.73;;
78057;SDS011;67265;52.514;13.292;2023-02-28T11:33:48;3.25;;;1.88;;
78057;SDS011;67265;52.514;13.292;2023-02-28T11:36:23;4.07;;;1.98;;
78057;SDS011;67265;52.514;13.292;2023-02-28T11:38:50;2.85;;;1.75;;
78057;SDS011;67265;52.514;13.292;2023-02-28T11:41:20;4.70;;;1.95;;
78057;SDS011;67265;52.514;13.292;2023-02-28T12:02:49;3.83;;;1.98;;
78057;SDS011;67265;52.514;13.292;2023-02-28T12:11:10;3.10;;;2.00;;
78057;SDS011;67265;52.514;13.292;2023-02-28T12:13:49;3.08;;;1.38;;
78057;SDS011;67265;52.514;13.292;2023-02-28T12:16:48;5.80;;;2.03;;
78057;SDS011;67265;52.514;13.292;2023-02-28T12:19:20;6.85;;;2.60;;
78057;SDS011;67265;52.514;13.292;2023-02-28T12:21:59;3.53;;;1.70;;
78057;SDS011;67265;52.514;13.292;2023-02-28T12:26:55;2.13;;;1.60;;
78057;SDS011;67265;52.514;13.292;2023-02-28T12:29:30;3.53;;;2.20;;
78057;SDS011;67265;52.514;13.292;2023-02-28T12:32:01;3.95;;;1.83;;
78057;SDS011;67265;52.514;13.292;2023-02-28T12:34:36;4.88;;;1.98;;
78057;SDS011;67265;52.514;13.292;2023-02-28T12:37:06;3.92;;;1.40;;
78057;SDS011;67265;52.514;13.292;2023-02-28T12:39:36;4.22;;;2.60;;
78057;SDS011;67265;52.514;13.292;2023-02-28T12:42:11;3.53;;;1.90;;
78057;SDS011;67265;52.514;13.292;2023-02-28T12:47:15;5.78;;;2.28;;
78057;SDS011;67265;52.514;13.292;2023-02-28T12:49:46;4.10;;;2.20;;
78057;SDS011;67265;52.514;13.292;2023-02-28T12:52:18;6.40;;;2.35;;
78057;SDS011;67265;52.514;13.292;2023-02-28T12:54:49;5.95;;;2.33;;
78057;SDS011;67265;52.514;13.292;2023-02-28T12:57:34;4.53;;;2.47;;
78057;SDS011;67265;52.514;13.292;2023-02-28T13:00:17;4.07;;;2.55;;
78057;SDS011;67265;52.514;13.292;2023-02-28T13:10:39;5.63;;;2.40;;
78057;SDS011;67265;52.514;13.292;2023-02-28T13:13:06;5.05;;;2.58;;
78057;SDS011;67265;52.514;13.292;2023-02-28T13:15:39;3.97;;;2.47;;
78057;SDS011;67265;52.514;13.292;2023-02-28T13:18:20;5.35;;;2.22;;
78057;SDS011;67265;52.514;13.292;2023-02-28T13:20:53;4.95;;;2.75;;
78057;SDS011;67265;52.514;13.292;2023-02-28T13:26:05;6.65;;;2.60;;
78057;SDS011;67265;52.514;13.292;2023-02-28T13:31:26;2.47;;;1.77;;
78057;SDS011;67265;52.514;13.292;2023-02-28T13:36:28;3.38;;;1.88;;
78057;SDS011;67265;52.514;13.292;2023-02-28T13:44:06;4.40;;;1.85;;
78057;SDS011;67265;52.514;13.292;2023-02-28T13:47:13;5.60;;;2.17;;
78057;SDS011;67265;52.514;13.292;2023-02-28T13:51:55;4.75;;;1.95;;
78057;SDS011;67265;52.514;13.292;2023-02-28T13:57:20;4.22;;;1.63;;
78057;SDS011;67265;52.514;13.292;2023-02-28T14:05:20;5.07;;;2.30;;
78057;SDS011;67265;52.514;13.292;2023-02-28T14:07:56;3.55;;;2.05;;
78057;SDS011;67265;52.514;13.292;2023-02-28T14:10:26;6.03;;;1.88;;
78057;SDS011;67265;52.514;13.292;2023-02-28T14:18:17;2.88;;;1.70;;
78057;SDS011;67265;52.514;13.292;2023-02-28T14:20:43;4.80;;;2.30;;
78057;SDS011;67265;52.514;13.292;2023-02-28T14:36:32;4.32;;;2.38;;
78057;SDS011;67265;52.514;13.292;2023-02-28T14:39:06;5.00;;;2.22;;
78057;SDS011;67265;52.514;13.292;2023-02-28T14:41:33;6.47;;;2.58;;
78057;SDS011;67265;52.514;13.292;2023-02-28T14:44:02;4.43;;;2.53;;
78057;SDS011;67265;52.514;13.292;2023-02-28T14:46:38;5.40;;;2.25;;
78057;SDS011;67265;52.514;13.292;2023-02-28T14:49:05;3.65;;;1.92;;
78057;SDS011;67265;52.514;13.292;2023-02-28T14:51:32;3.15;;;1.90;;
78057;SDS011;67265;52.514;13.292;2023-02-28T14:53:58;3.88;;;2.30;;
78057;SDS011;67265;52.514;13.292;2023-02-28T14:56:27;3.97;;;1.42;;
78057;SDS011;67265;52.514;13.292;2023-02-28T14:58:56;3.38;;;1.70;;
78057;SDS011;67265;52.514;13.292;2023-02-28T15:01:23;5.32;;;2.35;;
78057;SDS011;67265;52.514;13.292;2023-02-28T15:03:56;4.22;;;2.22;;
78057;SDS011;67265;52.514;13.292;2023-02-28T15:06:27;5.18;;;1.98;;
78057;SDS011;67265;52.514;13.292;2023-02-28T15:09:06;5.05;;;2.30;;
78057;SDS011;67265;52.514;13.292;2023-02-28T15:11:38;4.95;;;2.63;;
78057;SDS011;67265;52.514;13.292;2023-02-28T15:14:04;4.63;;;2.70;;
78057;SDS011;67265;52.514;13.292;2023-02-28T15:16:32;5.15;;;2.35;;
78057;SDS011;67265;52.514;13.292;2023-02-28T15:19:01;4.25;;;2.28;;
78057;SDS011;67265;52.514;13.292;2023-02-28T15:21:35;4.72;;;2.40;;
78057;SDS011;67265;52.514;13.292;2023-02-28T15:24:16;4.63;;;2.20;;
78057;SDS011;67265;52.514;13.292;2023-02-28T15:26:50;2.28;;;1.30;;
78057;SDS011;67265;52.514;13.292;2023-02-28T15:29:22;4.05;;;2.35;;
78057;SDS011;67265;52.514;13.292;2023-02-28T15:34:18;4.05;;;2.28;;
78057;SDS011;67265;52.514;13.292;2023-02-28T15:36:45;4.53;;;2.20;;
78057;SDS011;67265;52.514;13.292;2023-02-28T15:39:20;4.68;;;2.50;;
78057;SDS011;67265;52.514;13.292;2023-02-28T15:41:48;5.13;;;2.50;;
78057;SDS011;67265;52.514;13.292;2023-02-28T15:44:17;4.85;;;2.13;;
78057;SDS011;67265;52.514;13.292;2023-02-28T15:49:40;4.25;;;2.67;;
78057;SDS011;67265;52.514;13.292;2023-02-28T15:52:14;4.15;;;2.45;;
78057;SDS011;67265;52.514;13.292;2023-02-28T15:54:41;4.38;;;2.45;;
78057;SDS011;67265;52.514;13.292;2023-02-28T15:57:12;3.58;;;2.47;;
78057;SDS011;67265;52.514;13.292;2023-02-28T15:59:42;3.13;;;2.10;;
78057;SDS011;67265;52.514;13.292;2023-02-28T16:02:16;4.47;;;2.70;;
78057;SDS011;67265;52.514;13.292;2023-02-28T16:07:41;4.30;;;3.15;;
78057;SDS011;67265;52.514;13.292;2023-02-28T16:10:09;4.15;;;2.00;;
78057;SDS011;67265;52.514;13.292;2023-02-28T16:12:36;4.13;;;2.50;;
78057;SDS011;67265;52.514;13.292;2023-02-28T16:15:06;3.20;;;2.80;;
78057;SDS011;67265;52.514;13.292;2023-02-28T16:17:52;4.35;;;1.60;;
78057;SDS011;67265;52.514;13.292;2023-02-28T16:22:48;5.47;;;1.75;;
78057;SDS011;67265;52.514;13.292;2023-02-28T16:25:14;5.35;;;2.70;;
78057;SDS011;67265;52.514;13.292;2023-02-28T16:27:41;4.57;;;2.53;;
78057;SDS011;67265;52.514;13.292;2023-02-28T16:30:09;6.68;;;2.75;;
78057;SDS011;67265;52.514;13.292;2023-02-28T16:32:43;5.38;;;2.45;;
78057;SDS011;67265;52.514;13.292;2023-02-28T16:35:12;3.58;;;1.70;;
78057;SDS011;67265;52.514;13.292;2023-02-28T16:37:39;5.18;;;2.65;;
78057;SDS011;67265;52.514;13.292;2023-02-28T16:40:04;4.78;;;2.55;;
78057;SDS011;67265;52.514;13.292;2023-02-28T16:42:30;8.07;;;2.83;;
78057;SDS011;67265;52.514;13.292;2023-02-28T16:44:56;4.90;;;2.13;;
78057;SDS011;67265;52.514;13.292;2023-02-28T16:47:22;4.20;;;2.15;;
78057;SDS011;67265;52.514;13.292;2023-02-28T16:49:48;4.05;;;1.73;;
78057;SDS011;67265;52.514;13.292;2023-02-28T16:52:14;5.00;;;2.97;;
78057;SDS011;67265;52.514;13.292;2023-02-28T16:54:40;6.68;;;3.47;;
78057;SDS011;67265;52.514;13.292;2023-02-28T16:57:06;6.40;;;4.57;;
78057;SDS011;67265;52.514;13.292;2023-02-28T16:59:36;5.88;;;3.15;;
78057;SDS011;67265;52.514;13.292;2023-02-28T17:02:04;7.00;;;3.55;;
78057;SDS011;67265;52.514;13.292;2023-02-28T17:04:36;4.65;;;2.53;;
78057;SDS011;67265;52.514;13.292;2023-02-28T17:07:01;3.17;;;1.77;;
78057;SDS011;67265;52.514;13.292;2023-02-28T17:09:26;5.45;;;3.05;;
78057;SDS011;67265;52.514;13.292;2023-02-28T17:11:52;4.85;;;2.20;;
78057;SDS011;67265;52.514;13.292;2023-02-28T17:14:17;4.80;;;2.60;;
78057;SDS011;67265;52.514;13.292;2023-02-28T17:16:43;4.78;;;2.60;;
78057;SDS011;67265;52.514;13.292;2023-02-28T17:19:12;5.05;;;2.83;;
78057;SDS011;67265;52.514;13.292;2023-02-28T17:21:40;4.43;;;2.55;;
78057;SDS011;67265;52.514;13.292;2023-02-28T17:24:07;4.32;;;2.67;;
78057;SDS011;67265;52.514;13.292;2023-02-28T17:26:33;5.13;;;2.50;;